createdAt,value
2022-10-17T00:01:00.344Z,100.00
2022-10-17T00:03:30.739Z,100.00
2022-10-17T00:06:05.402Z,100.00
2022-10-17T00:08:36.675Z,100.00
2022-10-17T00:11:06.855Z,100.00
2022-10-17T00:13:37.408Z,100.00
2022-10-17T00:16:09.236Z,100.00
2022-10-17T00:18:39.971Z,100.00
2022-10-17T00:21:17.904Z,100.00
2022-10-17T00:23:48.700Z,100.00
2022-10-17T00:26:19.569Z,100.00
2022-10-17T00:28:51.715Z,100.00
2022-10-17T00:31:24.483Z,100.00
2022-10-17T00:33:55.119Z,100.00
2022-10-17T00:36:26.981Z,100.00
2022-10-17T00:38:59.531Z,100.00
2022-10-17T00:41:33.187Z,100.00
2022-10-17T00:44:05.861Z,100.00
2022-10-17T00:46:40.528Z,100.00
2022-10-17T00:49:13.862Z,100.00
2022-10-17T00:51:47.889Z,100.00
2022-10-17T00:54:22.543Z,100.00
2022-10-17T00:56:54.313Z,100.00
2022-10-17T00:59:26.228Z,100.00
2022-10-17T01:02:04.684Z,100.00
2022-10-17T01:04:36.585Z,100.00
2022-10-17T01:07:07.041Z,100.00
2022-10-17T01:09:38.175Z,100.00
2022-10-17T01:12:18.953Z,100.00
2022-10-17T01:15:00.967Z,100.00
2022-10-17T01:17:41.165Z,100.00
2022-10-17T01:27:49.998Z,100.00
2022-10-17T01:30:57.546Z,100.00
2022-10-17T01:33:48.310Z,100.00
2022-10-17T01:36:31.870Z,100.00
2022-10-17T01:39:10.699Z,100.00
2022-10-17T01:41:47.997Z,100.00
2022-10-17T01:44:24.564Z,100.00
2022-10-17T01:47:00.386Z,100.00
2022-10-17T01:49:33.534Z,100.00
2022-10-17T01:52:09.257Z,100.00
2022-10-17T01:54:46.714Z,100.00
2022-10-17T01:57:23.145Z,100.00
2022-10-17T01:59:56.596Z,100.00
2022-10-17T02:02:28.092Z,100.00
2022-10-17T02:07:29.515Z,100.00
2022-10-17T02:10:00.414Z,100.00
2022-10-17T02:12:46.492Z,100.00
2022-10-17T02:15:37.204Z,100.00
2022-10-17T02:18:22.179Z,100.00
2022-10-17T02:21:19.735Z,100.00
2022-10-17T02:23:56.815Z,100.00
2022-10-17T02:26:32.369Z,100.00
2022-10-17T02:29:11.117Z,100.00
2022-10-17T02:32:00.116Z,100.00
2022-10-17T02:34:36.048Z,100.00
2022-10-17T02:37:09.521Z,100.00
2022-10-17T02:39:41.401Z,100.00
2022-10-17T02:42:14.305Z,100.00
2022-10-17T02:44:47.395Z,100.00
2022-10-17T02:47:24.134Z,100.00
2022-10-17T02:49:56.782Z,100.00
2022-10-17T02:52:34.205Z,100.00
2022-10-17T02:55:10.736Z,100.00
2022-10-17T02:57:46.335Z,100.00
2022-10-17T03:00:20.930Z,100.00
2022-10-17T03:02:53.587Z,100.00
2022-10-17T03:05:26.420Z,100.00
2022-10-17T03:07:57.862Z,100.00
2022-10-17T03:10:28.429Z,100.00
2022-10-17T03:12:58.981Z,100.00
2022-10-17T03:15:29.659Z,100.00
2022-10-17T03:18:00.234Z,100.00
2022-10-17T03:20:30.827Z,100.00
2022-10-17T03:23:07.138Z,100.00
2022-10-17T03:25:37.532Z,100.00
2022-10-17T03:28:08.817Z,100.00
2022-10-17T03:30:40.964Z,100.00
2022-10-17T03:33:12.425Z,100.00
2022-10-17T03:35:43.052Z,100.00
2022-10-17T03:38:13.917Z,100.00
2022-10-17T03:40:45.368Z,100.00
2022-10-17T03:43:16.100Z,100.00
2022-10-17T03:45:46.657Z,100.00
2022-10-17T03:48:17.216Z,100.00
2022-10-17T03:50:47.853Z,100.00
2022-10-17T03:53:18.429Z,100.00
2022-10-17T03:55:49.108Z,100.00
2022-10-17T03:58:19.800Z,100.00
2022-10-17T04:00:50.947Z,100.00
2022-10-17T04:03:21.813Z,100.00
2022-10-17T04:05:52.374Z,100.00
2022-10-17T04:08:23.015Z,100.00
2022-10-17T04:11:09.988Z,100.00
2022-10-17T04:13:41.680Z,100.00
2022-10-17T04:16:16.561Z,100.00
2022-10-17T04:19:16.589Z,100.00
2022-10-17T04:21:49.594Z,100.00
2022-10-17T04:24:19.588Z,100.00
2022-10-17T04:27:26.417Z,100.00
2022-10-17T04:29:58.372Z,100.00
2022-10-17T04:32:29.335Z,100.00
2022-10-17T04:35:08.556Z,100.00
2022-10-17T04:37:39.161Z,100.00
2022-10-17T04:40:15.235Z,100.00
2022-10-17T04:42:45.870Z,100.00
2022-10-17T04:45:20.013Z,100.00
2022-10-17T04:47:51.182Z,100.00
2022-10-17T04:50:21.964Z,100.00
2022-10-17T04:53:08.723Z,100.00
2022-10-17T04:55:50.351Z,100.00
2022-10-17T04:58:21.756Z,100.00
2022-10-17T05:00:53.253Z,100.00
2022-10-17T05:03:26.919Z,100.00
2022-10-17T05:05:57.545Z,100.00
2022-10-17T05:08:29.207Z,100.00
2022-10-17T05:11:00.967Z,100.00
2022-10-17T05:13:32.440Z,100.00
2022-10-17T05:16:04.038Z,100.00
2022-10-17T05:18:35.571Z,100.00
2022-10-17T05:21:07.859Z,100.00
2022-10-17T05:23:38.809Z,100.00
2022-10-17T05:26:11.278Z,100.00
2022-10-17T05:28:41.774Z,100.00
2022-10-17T05:31:18.350Z,100.00
2022-10-17T05:33:49.559Z,100.00
2022-10-17T05:36:22.699Z,100.00
2022-10-17T05:38:54.558Z,100.00
2022-10-17T05:41:59.531Z,100.00
2022-10-17T05:44:30.871Z,100.00
2022-10-17T05:47:03.134Z,100.00
2022-10-17T05:49:44.973Z,100.00
2022-10-17T05:52:21.143Z,100.00
2022-10-17T05:55:00.963Z,100.00
2022-10-17T05:57:31.876Z,100.00
2022-10-17T06:00:02.690Z,100.00
2022-10-17T06:02:46.013Z,100.00
2022-10-17T06:05:18.452Z,100.00
2022-10-17T06:07:58.249Z,100.00
2022-10-17T06:10:32.732Z,100.00
2022-10-17T06:13:03.820Z,100.00
2022-10-17T06:15:34.288Z,100.00
2022-10-17T06:18:09.057Z,100.00
2022-10-17T06:20:43.834Z,100.00
2022-10-17T06:23:17.566Z,100.00
2022-10-17T06:25:58.731Z,100.00
2022-10-17T06:28:29.262Z,100.00
2022-10-17T06:31:01.103Z,100.00
2022-10-17T06:33:31.913Z,100.00
2022-10-17T06:36:02.779Z,100.00
2022-10-17T06:38:35.196Z,100.00
2022-10-17T06:41:16.185Z,100.00
2022-10-17T06:43:48.226Z,100.00
2022-10-17T06:46:49.285Z,100.00
2022-10-17T06:49:21.594Z,100.00
2022-10-17T06:52:01.062Z,100.00
2022-10-17T06:54:43.962Z,100.00
2022-10-17T06:57:38.394Z,100.00
2022-10-17T07:00:28.852Z,100.00
2022-10-17T07:03:01.057Z,100.00
2022-10-17T07:05:39.356Z,100.00
2022-10-17T07:08:31.208Z,100.00
2022-10-17T07:11:23.828Z,100.00
2022-10-17T07:14:13.797Z,100.00
2022-10-17T07:16:48.228Z,100.00
2022-10-17T07:19:57.973Z,100.00
2022-10-17T07:22:34.134Z,100.00
2022-10-17T07:25:08.917Z,100.00
2022-10-17T07:28:04.273Z,100.00
2022-10-17T07:31:14.132Z,100.00
2022-10-17T07:33:57.833Z,100.00
2022-10-17T07:36:29.135Z,100.00
2022-10-17T07:39:02.742Z,100.00
2022-10-17T07:41:43.924Z,100.00
2022-10-17T07:44:36.680Z,100.00
2022-10-17T07:47:23.981Z,100.00
2022-10-17T07:50:37.575Z,100.00
2022-10-17T07:53:30.002Z,100.00
2022-10-17T07:56:07.061Z,100.00
2022-10-17T07:58:46.123Z,100.00
2022-10-17T08:01:46.418Z,100.00
2022-10-17T08:04:25.281Z,100.00
2022-10-17T08:07:18.566Z,100.00
2022-10-17T08:09:53.477Z,100.00
2022-10-17T08:12:52.166Z,100.00
2022-10-17T08:15:54.919Z,100.00
2022-10-17T08:21:54.370Z,100.00
2022-10-17T08:24:37.721Z,100.00
2022-10-17T08:27:54.984Z,100.00
2022-10-17T08:31:48.312Z,100.00
2022-10-17T08:34:27.250Z,100.00
2022-10-17T08:37:01.390Z,100.00
2022-10-17T08:39:33.590Z,100.00
2022-10-17T08:42:27.990Z,100.00
2022-10-17T08:45:25.705Z,100.00
2022-10-17T08:48:02.300Z,100.00
2022-10-17T08:50:43.659Z,100.00
2022-10-17T08:53:16.947Z,100.00
2022-10-17T08:55:57.574Z,100.00
2022-10-17T08:58:36.774Z,98.55
2022-10-17T09:01:51.654Z,98.56
2022-10-17T09:04:47.628Z,97.50
2022-10-17T09:07:28.524Z,94.60
2022-10-17T09:10:26.988Z,94.93
2022-10-17T09:13:16.221Z,95.75
2022-10-17T09:16:07.777Z,94.49
2022-10-17T09:18:42.295Z,91.98
2022-10-17T09:21:22.329Z,88.86
2022-10-17T09:24:09.206Z,87.88
2022-10-17T09:26:42.410Z,88.27
2022-10-17T09:29:20.954Z,87.75
2022-10-17T09:32:13.991Z,84.88
2022-10-17T09:34:45.204Z,82.70
2022-10-17T09:37:16.185Z,79.29
2022-10-17T09:39:47.528Z,79.67
2022-10-17T09:42:23.179Z,78.90
2022-10-17T09:44:58.606Z,80.36
2022-10-17T09:47:35.954Z,77.11
2022-10-17T09:50:18.823Z,77.23
2022-10-17T09:52:50.897Z,76.45
2022-10-17T09:55:28.530Z,77.84
2022-10-17T09:58:01.640Z,77.47
2022-10-17T10:04:21.311Z,74.85
2022-10-17T10:07:09.674Z,75.33
2022-10-17T10:09:41.126Z,75.40
2022-10-17T10:12:24.042Z,73.55
2022-10-17T10:15:37.961Z,73.76
2022-10-17T10:18:31.917Z,75.01
2022-10-17T10:21:13.031Z,74.69
2022-10-17T10:23:45.350Z,74.35
2022-10-17T10:26:26.779Z,74.29
2022-10-17T10:29:02.107Z,73.35
2022-10-17T10:31:52.186Z,73.77
2022-10-17T10:34:34.583Z,73.91
2022-10-17T10:37:17.378Z,74.36
2022-10-17T10:39:54.667Z,72.38
2022-10-17T10:42:30.185Z,72.16
2022-10-17T10:45:35.898Z,70.69
2022-10-17T10:48:25.387Z,71.31
2022-10-17T10:51:01.386Z,71.60
2022-10-17T10:53:39.818Z,72.23
2022-10-17T10:56:20.512Z,72.08
2022-10-17T10:59:00.395Z,71.27
2022-10-17T11:01:45.070Z,71.50
2022-10-17T11:04:34.383Z,71.09
2022-10-17T11:07:16.045Z,71.00
2022-10-17T11:09:59.763Z,70.47
2022-10-17T11:12:51.910Z,69.85
2022-10-17T11:16:02.425Z,68.19
2022-10-17T11:18:40.912Z,68.77
2022-10-17T11:21:17.502Z,65.45
2022-10-17T11:23:55.319Z,66.37
2022-10-17T11:26:31.801Z,67.31
2022-10-17T11:29:06.746Z,67.92
2022-10-17T11:31:41.491Z,66.41
2022-10-17T11:34:20.166Z,64.95
2022-10-17T11:37:05.131Z,64.51
2022-10-17T11:39:48.589Z,64.69
2022-10-17T11:42:24.799Z,64.50
2022-10-17T11:45:01.464Z,63.89
2022-10-17T11:47:43.248Z,63.56
2022-10-17T11:53:26.401Z,62.16
2022-10-17T11:55:59.520Z,62.33
2022-10-17T11:58:51.707Z,62.62
2022-10-17T12:01:33.935Z,64.33
2022-10-17T12:04:31.367Z,64.16
2022-10-17T12:07:15.851Z,62.99
2022-10-17T12:09:55.774Z,61.18
2022-10-17T12:12:40.975Z,60.61
2022-10-17T12:15:36.836Z,60.21
2022-10-17T12:18:30.164Z,59.04
2022-10-17T12:21:02.081Z,57.02
2022-10-17T12:23:36.410Z,56.08
2022-10-17T12:26:28.453Z,55.27
2022-10-17T12:29:00.414Z,54.90
2022-10-17T12:31:34.058Z,54.95
2022-10-17T12:34:06.520Z,53.84
2022-10-17T12:36:45.941Z,53.13
2022-10-17T12:39:56.016Z,52.01
2022-10-17T12:42:50.977Z,51.69
2022-10-17T12:45:58.291Z,51.41
2022-10-17T12:49:04.278Z,52.19
2022-10-17T12:52:15.819Z,50.13
2022-10-17T12:55:00.339Z,48.89
2022-10-17T12:57:48.426Z,49.43
2022-10-17T13:00:23.943Z,48.34
2022-10-17T13:02:57.342Z,48.19
2022-10-17T13:05:33.914Z,47.99
2022-10-17T13:08:08.591Z,48.36
2022-10-17T13:10:43.203Z,48.27
2022-10-17T13:13:21.099Z,47.36
2022-10-17T13:15:53.535Z,46.18
2022-10-17T13:18:26.931Z,47.03
2022-10-17T13:21:02.906Z,46.55
2022-10-17T13:23:35.987Z,47.50
2022-10-17T13:26:16.581Z,47.90
2022-10-17T13:28:45.535Z,47.93
2022-10-17T13:31:35.257Z,47.17
2022-10-17T13:34:07.557Z,45.40
2022-10-17T13:36:38.227Z,45.73
2022-10-17T13:39:17.188Z,44.81
2022-10-17T13:41:50.356Z,45.51
2022-10-17T13:44:20.656Z,44.81
2022-10-17T13:46:51.991Z,45.85
2022-10-17T13:49:30.095Z,45.95
2022-10-17T13:52:02.596Z,45.44
2022-10-17T13:54:40.092Z,44.88
2022-10-17T13:57:21.421Z,44.39
2022-10-17T13:59:55.436Z,45.15
2022-10-17T14:02:28.188Z,44.33
2022-10-17T14:05:20.136Z,43.78
2022-10-17T14:08:13.352Z,43.51
2022-10-17T14:10:46.529Z,44.50
2022-10-17T14:13:24.454Z,44.64
2022-10-17T14:15:56.190Z,43.98
2022-10-17T14:18:38.332Z,44.16
2022-10-17T14:24:27.383Z,43.99
2022-10-17T14:27:00.114Z,45.56
2022-10-17T14:29:33.610Z,45.20
2022-10-17T14:32:08.558Z,46.69
2022-10-17T14:34:41.616Z,46.15
2022-10-17T14:37:19.625Z,46.82
2022-10-17T14:39:55.136Z,47.06
2022-10-17T14:42:26.259Z,48.36
2022-10-17T14:45:04.129Z,49.59
2022-10-17T14:47:50.519Z,50.01
2022-10-17T14:50:28.354Z,51.17
2022-10-17T14:53:07.457Z,52.29
2022-10-17T14:55:39.843Z,52.60
2022-10-17T14:58:25.315Z,53.07
2022-10-17T15:00:55.802Z,54.30
2022-10-17T15:03:26.657Z,54.96
2022-10-17T15:05:56.411Z,55.69
2022-10-17T15:08:26.830Z,56.23
2022-10-17T15:10:57.403Z,57.10
2022-10-17T15:13:30.273Z,57.48
2022-10-17T15:16:01.893Z,58.49
2022-10-17T15:18:32.331Z,58.60
2022-10-17T15:21:05.417Z,59.35
2022-10-17T15:23:48.461Z,59.88
2022-10-17T15:26:21.777Z,60.50
2022-10-17T15:28:53.633Z,61.31
2022-10-17T15:31:26.287Z,61.89
2022-10-17T15:33:56.986Z,63.57
2022-10-17T15:36:29.955Z,65.11
2022-10-17T15:39:02.622Z,65.73
2022-10-17T15:41:34.349Z,65.90
2022-10-17T15:44:04.903Z,66.52
2022-10-17T15:46:37.456Z,67.13
2022-10-17T15:49:11.174Z,67.79
2022-10-17T15:51:43.405Z,68.56
2022-10-17T15:54:14.184Z,69.60
2022-10-17T15:56:48.138Z,70.03
2022-10-17T15:59:23.488Z,70.55
2022-10-17T16:01:54.263Z,71.11
2022-10-17T16:04:27.250Z,72.30
2022-10-17T16:06:57.863Z,73.27
2022-10-17T16:09:30.126Z,74.40
2022-10-17T16:12:01.407Z,75.29
2022-10-17T16:14:32.591Z,76.52
2022-10-17T16:17:01.653Z,77.19
2022-10-17T16:19:32.461Z,78.07
2022-10-17T16:22:06.155Z,79.22
2022-10-17T16:24:36.751Z,80.36
2022-10-17T16:27:12.440Z,81.98
2022-10-17T16:29:43.076Z,83.09
2022-10-17T16:32:13.747Z,83.74
2022-10-17T16:34:44.319Z,85.27
2022-10-17T16:37:14.878Z,86.26
2022-10-17T16:39:49.183Z,86.77
2022-10-17T16:42:20.019Z,87.44
2022-10-17T16:44:51.885Z,88.30
2022-10-17T16:47:22.591Z,88.98
2022-10-17T16:49:53.423Z,89.98
2022-10-17T16:52:24.255Z,90.60
2022-10-17T16:54:54.736Z,91.55
2022-10-17T16:57:25.332Z,92.21
2022-10-17T16:59:56.490Z,92.42
2022-10-17T17:02:27.188Z,93.26
2022-10-17T17:05:04.014Z,93.58
2022-10-17T17:07:34.506Z,94.09
2022-10-17T17:10:05.236Z,94.84
2022-10-17T17:12:37.516Z,95.19
2022-10-17T17:15:08.724Z,95.60
2022-10-17T17:17:49.731Z,95.68
2022-10-17T17:20:27.074Z,95.99
2022-10-17T17:22:57.619Z,96.39
2022-10-17T17:25:28.089Z,97.23
2022-10-17T17:27:58.678Z,96.88
2022-10-17T17:30:29.891Z,96.69
2022-10-17T17:33:00.043Z,96.95
2022-10-17T17:35:31.859Z,97.58
2022-10-17T17:38:04.867Z,98.19
2022-10-17T17:40:35.468Z,98.35
2022-10-17T17:43:05.965Z,98.73
2022-10-17T17:45:58.907Z,98.71
2022-10-17T17:48:29.590Z,98.74
2022-10-17T17:51:03.828Z,98.77
2022-10-17T17:53:34.756Z,98.76
2022-10-17T17:56:07.203Z,98.60
2022-10-17T17:58:38.522Z,98.66
2022-10-17T18:01:14.303Z,98.64
2022-10-17T18:03:46.111Z,98.75
2022-10-17T18:06:17.351Z,99.01
2022-10-17T18:08:47.058Z,99.22
2022-10-17T18:11:21.147Z,99.40
2022-10-17T18:13:56.961Z,99.61
2022-10-17T18:16:28.279Z,99.80
2022-10-17T18:18:59.500Z,99.77
2022-10-17T18:21:33.976Z,99.75
2022-10-17T18:24:05.737Z,99.80
2022-10-17T18:26:36.712Z,99.90
2022-10-17T18:29:07.600Z,100.00
2022-10-17T18:31:38.235Z,100.00
2022-10-17T18:34:09.077Z,100.00
2022-10-17T18:36:39.917Z,99.99
2022-10-17T18:39:10.911Z,99.96
2022-10-17T18:41:41.649Z,99.78
2022-10-17T18:44:13.016Z,99.95
2022-10-17T18:49:19.419Z,99.89
2022-10-17T18:51:56.963Z,99.93
2022-10-17T18:54:27.485Z,99.98
2022-10-17T18:56:58.317Z,100.00
2022-10-17T18:59:29.517Z,100.00
2022-10-17T19:02:07.214Z,100.00
2022-10-17T19:04:38.906Z,100.00
2022-10-17T19:07:09.777Z,100.00
2022-10-17T19:09:40.475Z,100.00
2022-10-17T19:12:11.885Z,100.00
2022-10-17T19:14:42.733Z,100.00
2022-10-17T19:17:13.403Z,100.00
2022-10-17T19:19:44.385Z,100.00
2022-10-17T19:22:15.405Z,100.00
2022-10-17T19:24:48.924Z,100.00
2022-10-17T19:27:20.863Z,100.00
2022-10-17T19:29:51.604Z,100.00
2022-10-17T19:32:23.076Z,100.00
2022-10-17T19:34:54.101Z,100.00
2022-10-17T19:37:25.583Z,100.00
2022-10-17T19:39:57.835Z,100.00
2022-10-17T19:42:30.973Z,100.00
2022-10-17T19:45:06.042Z,100.00
2022-10-17T19:47:39.795Z,100.00
2022-10-17T19:50:11.176Z,100.00
2022-10-17T19:52:40.194Z,100.00
2022-10-17T19:55:11.329Z,100.00
2022-10-17T19:57:41.867Z,100.00
2022-10-17T20:00:14.411Z,100.00
2022-10-17T20:02:47.152Z,100.00
2022-10-17T20:05:19.068Z,100.00
2022-10-17T20:07:50.511Z,100.00
2022-10-17T20:10:21.265Z,100.00
2022-10-17T20:12:51.931Z,100.00
2022-10-17T20:15:22.467Z,100.00
2022-10-17T20:17:53.164Z,100.00
2022-10-17T20:20:23.734Z,100.00
2022-10-17T20:22:54.554Z,100.00
2022-10-17T20:25:25.504Z,100.00
2022-10-17T20:27:55.998Z,100.00
2022-10-17T20:30:27.573Z,100.00
2022-10-17T20:32:58.112Z,100.00
2022-10-17T20:35:28.689Z,100.00
2022-10-17T20:37:59.861Z,100.00
2022-10-17T20:40:36.122Z,100.00
2022-10-17T20:43:08.326Z,100.00
2022-10-17T20:45:50.984Z,100.00
2022-10-17T20:48:22.734Z,100.00
2022-10-17T20:50:54.023Z,100.00
2022-10-17T20:53:36.478Z,100.00
2022-10-17T20:56:13.508Z,100.00
2022-10-17T20:58:43.963Z,100.00
2022-10-17T21:01:14.545Z,100.00
2022-10-17T21:03:46.683Z,100.00
2022-10-17T21:06:16.218Z,100.00
2022-10-17T21:08:47.693Z,100.00
2022-10-17T21:11:19.648Z,100.00
2022-10-17T21:13:55.530Z,100.00
2022-10-17T21:16:26.880Z,100.00
2022-10-17T21:18:56.967Z,100.00
2022-10-17T21:21:29.662Z,100.00
2022-10-17T21:24:03.125Z,100.00
2022-10-17T21:26:37.473Z,100.00
2022-10-17T21:29:09.197Z,100.00
2022-10-17T21:31:41.646Z,100.00
2022-10-17T21:34:15.457Z,100.00
2022-10-17T21:36:46.647Z,100.00
2022-10-17T21:39:19.257Z,100.00
2022-10-17T21:41:49.988Z,100.00
2022-10-17T21:44:22.972Z,100.00
2022-10-17T21:46:54.635Z,100.00
2022-10-17T21:49:26.527Z,100.00
2022-10-17T21:51:57.246Z,100.00
2022-10-17T21:54:27.674Z,100.00
2022-10-17T21:56:58.037Z,100.00
2022-10-17T21:59:28.782Z,100.00
2022-10-17T22:01:59.331Z,100.00
2022-10-17T22:04:29.879Z,100.00
2022-10-17T22:07:00.367Z,100.00
2022-10-17T22:09:30.895Z,100.00
2022-10-17T22:12:01.385Z,100.00
2022-10-17T22:14:31.857Z,100.00
2022-10-17T22:17:02.529Z,100.00
2022-10-17T22:19:33.175Z,100.00
2022-10-17T22:22:03.483Z,100.00
2022-10-17T22:24:34.026Z,100.00
2022-10-17T22:27:14.272Z,100.00
2022-10-17T22:29:44.639Z,100.00
2022-10-17T22:32:19.969Z,100.00
2022-10-17T22:34:53.327Z,100.00
2022-10-17T22:37:24.218Z,100.00
2022-10-17T22:39:54.719Z,100.00
2022-10-17T22:42:25.290Z,100.00
2022-10-17T22:44:55.659Z,100.00
2022-10-17T22:47:26.073Z,100.00
2022-10-17T22:49:56.536Z,100.00
2022-10-17T22:52:27.217Z,100.00
2022-10-17T22:54:57.745Z,100.00
2022-10-17T22:57:28.318Z,100.00
2022-10-17T22:59:58.821Z,100.00
2022-10-17T23:02:29.755Z,100.00
2022-10-17T23:05:01.016Z,100.00
2022-10-17T23:07:31.788Z,100.00
2022-10-17T23:10:02.558Z,100.00
2022-10-17T23:12:33.521Z,100.00
2022-10-17T23:15:04.242Z,100.00
2022-10-17T23:17:34.652Z,100.00
2022-10-17T23:20:05.567Z,100.00
2022-10-17T23:22:35.983Z,100.00
2022-10-17T23:25:07.331Z,100.00
2022-10-17T23:27:37.778Z,100.00
2022-10-17T23:30:11.720Z,100.00
2022-10-17T23:32:42.443Z,100.00
2022-10-17T23:35:13.417Z,100.00
2022-10-17T23:37:43.840Z,100.00
2022-10-17T23:40:15.576Z,100.00
2022-10-17T23:42:46.031Z,100.00
2022-10-17T23:45:16.801Z,100.00
2022-10-17T23:47:47.193Z,100.00
2022-10-17T23:50:17.905Z,100.00
2022-10-17T23:52:48.434Z,100.00
2022-10-17T23:55:19.096Z,100.00
2022-10-17T23:57:49.761Z,100.00
